Bayville, New Jersey
Current Conditions -  °F | °C
As of 10:55 PM on Wednesday 22 Oct 2014 (Local Time) from KMJX Reporting Station
Overcast Overcast  
Wind Chill: 52°   Ceiling: 2200
Heat Index: 52°   Visibility: 8mi
Dew Point: 48°   Wind: 8mph
Humidity: 88%   Direction: 340°NNW
Pressure: 29.74"   Gusts: 17mph
Location:  39.91°N, 74.16°W
Report Text: KMJX 230255Z AUTO 34007G15KT 8SM FEW011 OVC022 11/09 A2974 RMK AO1 57010
Loading
Personal Weather Stations






























Interactive Weather Map
Tropical Storm Tracking
New forecast layout! Learn more

10-Day Weather Forecast

Advertisements
Track Severe Weather on mobile